sensor_id;sensor_type;location;lat;lon;timestamp;P1;durP1;ratioP1;P2;durP2;ratioP2
35919;SDS011;36160;53.370;-6.196;2023-02-11T00:00:08;8.98;;;3.22;;
35919;SDS011;36160;53.370;-6.196;2023-02-11T00:02:34;7.85;;;2.70;;
35919;SDS011;36160;53.370;-6.196;2023-02-11T00:05:00;5.80;;;3.05;;
35919;SDS011;36160;53.370;-6.196;2023-02-11T00:07:30;9.93;;;3.78;;
35919;SDS011;36160;53.370;-6.196;2023-02-11T00:09:57;7.13;;;3.37;;
35919;SDS011;36160;53.370;-6.196;2023-02-11T00:12:23;6.97;;;3.00;;
35919;SDS011;36160;53.370;-6.196;2023-02-11T00:14:48;6.32;;;3.17;;
35919;SDS011;36160;53.370;-6.196;2023-02-11T00:17:15;11.80;;;3.22;;
35919;SDS011;36160;53.370;-6.196;2023-02-11T00:19:41;6.53;;;3.22;;
35919;SDS011;36160;53.370;-6.196;2023-02-11T00:22:06;6.03;;;2.42;;
35919;SDS011;36160;53.370;-6.196;2023-02-11T00:24:32;5.18;;;2.50;;
35919;SDS011;36160;53.370;-6.196;2023-02-11T00:26:59;6.28;;;2.45;;
35919;SDS011;36160;53.370;-6.196;2023-02-11T00:29:25;7.35;;;3.17;;
35919;SDS011;36160;53.370;-6.196;2023-02-11T00:31:51;11.07;;;3.33;;
35919;SDS011;36160;53.370;-6.196;2023-02-11T00:34:16;13.27;;;3.80;;
35919;SDS011;36160;53.370;-6.196;2023-02-11T00:36:42;11.00;;;4.60;;
35919;SDS011;36160;53.370;-6.196;2023-02-11T00:39:08;7.13;;;3.00;;
35919;SDS011;36160;53.370;-6.196;2023-02-11T00:41:34;7.18;;;3.72;;
35919;SDS011;36160;53.370;-6.196;2023-02-11T00:44:00;7.72;;;3.30;;
35919;SDS011;36160;53.370;-6.196;2023-02-11T00:46:26;9.43;;;3.72;;
35919;SDS011;36160;53.370;-6.196;2023-02-11T00:48:52;9.05;;;3.85;;
35919;SDS011;36160;53.370;-6.196;2023-02-11T00:51:21;4.55;;;3.13;;
35919;SDS011;36160;53.370;-6.196;2023-02-11T00:53:51;6.95;;;3.55;;
35919;SDS011;36160;53.370;-6.196;2023-02-11T00:56:17;11.20;;;4.28;;
35919;SDS011;36160;53.370;-6.196;2023-02-11T00:58:43;8.30;;;4.13;;
35919;SDS011;36160;53.370;-6.196;2023-02-11T01:01:09;6.65;;;3.97;;
35919;SDS011;36160;53.370;-6.196;2023-02-11T01:03:36;6.63;;;3.75;;
35919;SDS011;36160;53.370;-6.196;2023-02-11T01:06:02;13.43;;;4.03;;
35919;SDS011;36160;53.370;-6.196;2023-02-11T01:08:29;8.57;;;3.97;;
35919;SDS011;36160;53.370;-6.196;2023-02-11T01:10:56;13.50;;;4.28;;
35919;SDS011;36160;53.370;-6.196;2023-02-11T01:13:27;5.50;;;4.05;;
35919;SDS011;36160;53.370;-6.196;2023-02-11T01:15:55;5.60;;;3.45;;
35919;SDS011;36160;53.370;-6.196;2023-02-11T01:18:21;6.22;;;3.50;;
35919;SDS011;36160;53.370;-6.196;2023-02-11T01:20:47;11.80;;;3.90;;
35919;SDS011;36160;53.370;-6.196;2023-02-11T01:23:13;7.38;;;3.88;;
35919;SDS011;36160;53.370;-6.196;2023-02-11T01:25:38;7.28;;;4.60;;
35919;SDS011;36160;53.370;-6.196;2023-02-11T01:28:04;11.18;;;4.40;;
35919;SDS011;36160;53.370;-6.196;2023-02-11T01:30:31;8.88;;;4.68;;
35919;SDS011;36160;53.370;-6.196;2023-02-11T01:32:56;8.98;;;4.28;;
35919;SDS011;36160;53.370;-6.196;2023-02-11T01:35:22;7.63;;;4.47;;
35919;SDS011;36160;53.370;-6.196;2023-02-11T01:37:48;24.23;;;6.32;;
35919;SDS011;36160;53.370;-6.196;2023-02-11T01:40:15;8.02;;;4.18;;
35919;SDS011;36160;53.370;-6.196;2023-02-11T01:42:41;8.20;;;4.10;;
35919;SDS011;36160;53.370;-6.196;2023-02-11T01:48:24;9.68;;;3.78;;
35919;SDS011;36160;53.370;-6.196;2023-02-11T01:51:13;7.03;;;4.40;;
35919;SDS011;36160;53.370;-6.196;2023-02-11T01:53:50;9.82;;;4.10;;
35919;SDS011;36160;53.370;-6.196;2023-02-11T01:56:37;9.10;;;5.40;;
35919;SDS011;36160;53.370;-6.196;2023-02-11T01:59:32;8.00;;;4.05;;
35919;SDS011;36160;53.370;-6.196;2023-02-11T02:02:06;7.53;;;4.65;;
35919;SDS011;36160;53.370;-6.196;2023-02-11T02:04:38;9.68;;;4.47;;
35919;SDS011;36160;53.370;-6.196;2023-02-11T02:07:12;7.82;;;3.97;;
35919;SDS011;36160;53.370;-6.196;2023-02-11T02:09:49;8.45;;;4.00;;
35919;SDS011;36160;53.370;-6.196;2023-02-11T02:12:20;7.25;;;3.88;;
35919;SDS011;36160;53.370;-6.196;2023-02-11T02:14:46;7.50;;;3.97;;
35919;SDS011;36160;53.370;-6.196;2023-02-11T02:17:23;3.90;;;2.97;;
35919;SDS011;36160;53.370;-6.196;2023-02-11T02:20:10;5.15;;;3.17;;
35919;SDS011;36160;53.370;-6.196;2023-02-11T02:23:08;5.63;;;2.78;;
35919;SDS011;36160;53.370;-6.196;2023-02-11T02:34:40;8.98;;;3.25;;
35919;SDS011;36160;53.370;-6.196;2023-02-11T02:37:23;6.03;;;2.70;;
35919;SDS011;36160;53.370;-6.196;2023-02-11T02:40:11;7.15;;;2.58;;
35919;SDS011;36160;53.370;-6.196;2023-02-11T02:42:47;6.10;;;3.78;;
35919;SDS011;36160;53.370;-6.196;2023-02-11T02:45:14;7.10;;;3.10;;
35919;SDS011;36160;53.370;-6.196;2023-02-11T02:47:40;4.72;;;3.08;;
35919;SDS011;36160;53.370;-6.196;2023-02-11T02:50:06;4.25;;;2.97;;
35919;SDS011;36160;53.370;-6.196;2023-02-11T03:00:52;4.28;;;3.05;;
35919;SDS011;36160;53.370;-6.196;2023-02-11T03:06:25;8.27;;;4.07;;
35919;SDS011;36160;53.370;-6.196;2023-02-11T03:11:39;8.98;;;2.88;;
35919;SDS011;36160;53.370;-6.196;2023-02-11T03:14:06;22.75;;;2.92;;
35919;SDS011;36160;53.370;-6.196;2023-02-11T03:16:35;7.93;;;3.20;;
35919;SDS011;36160;53.370;-6.196;2023-02-11T03:19:22;5.35;;;2.70;;
35919;SDS011;36160;53.370;-6.196;2023-02-11T03:21:54;5.47;;;2.88;;
35919;SDS011;36160;53.370;-6.196;2023-02-11T03:24:28;10.02;;;2.85;;
35919;SDS011;36160;53.370;-6.196;2023-02-11T03:27:03;5.32;;;3.00;;
35919;SDS011;36160;53.370;-6.196;2023-02-11T03:29:38;3.53;;;2.60;;
35919;SDS011;36160;53.370;-6.196;2023-02-11T03:32:18;7.00;;;2.95;;
35919;SDS011;36160;53.370;-6.196;2023-02-11T03:34:58;5.45;;;2.53;;
35919;SDS011;36160;53.370;-6.196;2023-02-11T03:40:29;5.60;;;2.65;;
35919;SDS011;36160;53.370;-6.196;2023-02-11T03:43:00;5.60;;;2.70;;
35919;SDS011;36160;53.370;-6.196;2023-02-11T03:45:31;6.55;;;2.30;;
35919;SDS011;36160;53.370;-6.196;2023-02-11T03:48:02;5.75;;;3.00;;
35919;SDS011;36160;53.370;-6.196;2023-02-11T03:50:35;6.13;;;3.10;;
35919;SDS011;36160;53.370;-6.196;2023-02-11T03:53:02;8.15;;;3.25;;
35919;SDS011;36160;53.370;-6.196;2023-02-11T03:55:29;7.05;;;3.28;;
35919;SDS011;36160;53.370;-6.196;2023-02-11T03:57:58;9.10;;;2.58;;
35919;SDS011;36160;53.370;-6.196;2023-02-11T04:00:28;4.18;;;2.47;;
35919;SDS011;36160;53.370;-6.196;2023-02-11T04:02:55;6.03;;;2.65;;
35919;SDS011;36160;53.370;-6.196;2023-02-11T04:05:21;7.88;;;2.38;;
35919;SDS011;36160;53.370;-6.196;2023-02-11T04:07:46;3.38;;;2.47;;
35919;SDS011;36160;53.370;-6.196;2023-02-11T04:10:12;7.45;;;2.50;;
35919;SDS011;36160;53.370;-6.196;2023-02-11T04:12:38;4.82;;;2.30;;
35919;SDS011;36160;53.370;-6.196;2023-02-11T04:15:04;6.28;;;2.40;;
35919;SDS011;36160;53.370;-6.196;2023-02-11T04:17:30;11.63;;;2.67;;
35919;SDS011;36160;53.370;-6.196;2023-02-11T04:19:56;16.20;;;3.67;;
35919;SDS011;36160;53.370;-6.196;2023-02-11T04:22:21;4.65;;;2.97;;
35919;SDS011;36160;53.370;-6.196;2023-02-11T04:24:47;3.78;;;2.25;;
35919;SDS011;36160;53.370;-6.196;2023-02-11T04:27:13;5.32;;;3.13;;
35919;SDS011;36160;53.370;-6.196;2023-02-11T04:29:38;8.20;;;2.70;;
35919;SDS011;36160;53.370;-6.196;2023-02-11T04:32:04;13.90;;;2.60;;
35919;SDS011;36160;53.370;-6.196;2023-02-11T04:34:30;4.78;;;2.60;;
35919;SDS011;36160;53.370;-6.196;2023-02-11T04:36:56;5.90;;;2.60;;
35919;SDS011;36160;53.370;-6.196;2023-02-11T04:39:21;7.65;;;2.63;;
35919;SDS011;36160;53.370;-6.196;2023-02-11T04:41:47;5.32;;;2.08;;
35919;SDS011;36160;53.370;-6.196;2023-02-11T04:44:13;10.63;;;3.55;;
35919;SDS011;36160;53.370;-6.196;2023-02-11T04:46:38;7.05;;;4.30;;
35919;SDS011;36160;53.370;-6.196;2023-02-11T04:49:04;9.63;;;6.78;;
35919;SDS011;36160;53.370;-6.196;2023-02-11T04:51:30;8.45;;;5.30;;
35919;SDS011;36160;53.370;-6.196;2023-02-11T04:53:56;7.32;;;3.25;;
35919;SDS011;36160;53.370;-6.196;2023-02-11T04:56:21;8.38;;;4.40;;
35919;SDS011;36160;53.370;-6.196;2023-02-11T04:58:47;4.90;;;2.58;;
35919;SDS011;36160;53.370;-6.196;2023-02-11T05:01:14;5.25;;;2.70;;
35919;SDS011;36160;53.370;-6.196;2023-02-11T05:03:40;6.65;;;3.13;;
35919;SDS011;36160;53.370;-6.196;2023-02-11T05:06:07;3.80;;;2.20;;
35919;SDS011;36160;53.370;-6.196;2023-02-11T05:08:34;6.82;;;3.33;;
35919;SDS011;36160;53.370;-6.196;2023-02-11T05:11:00;6.05;;;3.17;;
35919;SDS011;36160;53.370;-6.196;2023-02-11T05:13:28;4.60;;;2.40;;
35919;SDS011;36160;53.370;-6.196;2023-02-11T05:15:54;7.55;;;3.92;;
35919;SDS011;36160;53.370;-6.196;2023-02-11T05:18:20;5.00;;;3.75;;
35919;SDS011;36160;53.370;-6.196;2023-02-11T05:20:46;6.68;;;5.25;;
35919;SDS011;36160;53.370;-6.196;2023-02-11T05:23:12;12.40;;;7.50;;
35919;SDS011;36160;53.370;-6.196;2023-02-11T05:25:37;5.30;;;3.15;;
35919;SDS011;36160;53.370;-6.196;2023-02-11T05:28:03;4.45;;;3.28;;
35919;SDS011;36160;53.370;-6.196;2023-02-11T05:30:29;4.22;;;2.40;;
35919;SDS011;36160;53.370;-6.196;2023-02-11T05:32:55;5.65;;;3.75;;
35919;SDS011;36160;53.370;-6.196;2023-02-11T05:35:21;5.63;;;2.42;;
35919;SDS011;36160;53.370;-6.196;2023-02-11T05:37:47;3.78;;;2.80;;
35919;SDS011;36160;53.370;-6.196;2023-02-11T05:40:12;2.58;;;2.20;;
35919;SDS011;36160;53.370;-6.196;2023-02-11T05:42:38;4.07;;;2.35;;
35919;SDS011;36160;53.370;-6.196;2023-02-11T05:45:04;4.78;;;1.95;;
35919;SDS011;36160;53.370;-6.196;2023-02-11T05:47:30;8.45;;;4.80;;
35919;SDS011;36160;53.370;-6.196;2023-02-11T05:49:55;11.02;;;6.60;;
35919;SDS011;36160;53.370;-6.196;2023-02-11T05:52:21;16.65;;;9.52;;
35919;SDS011;36160;53.370;-6.196;2023-02-11T05:54:47;15.10;;;7.50;;
35919;SDS011;36160;53.370;-6.196;2023-02-11T05:57:13;13.63;;;7.03;;
35919;SDS011;36160;53.370;-6.196;2023-02-11T05:59:39;12.07;;;5.38;;
35919;SDS011;36160;53.370;-6.196;2023-02-11T06:02:05;4.68;;;2.70;;
35919;SDS011;36160;53.370;-6.196;2023-02-11T06:04:32;3.25;;;2.40;;
35919;SDS011;36160;53.370;-6.196;2023-02-11T06:06:58;8.07;;;2.00;;
35919;SDS011;36160;53.370;-6.196;2023-02-11T06:09:24;5.40;;;2.08;;
35919;SDS011;36160;53.370;-6.196;2023-02-11T06:11:51;2.30;;;1.98;;
35919;SDS011;36160;53.370;-6.196;2023-02-11T06:14:17;6.22;;;1.80;;
35919;SDS011;36160;53.370;-6.196;2023-02-11T06:16:42;7.05;;;2.10;;
35919;SDS011;36160;53.370;-6.196;2023-02-11T06:19:08;4.13;;;2.00;;
35919;SDS011;36160;53.370;-6.196;2023-02-11T06:21:34;2.92;;;1.90;;
35919;SDS011;36160;53.370;-6.196;2023-02-11T06:23:59;5.03;;;2.28;;
35919;SDS011;36160;53.370;-6.196;2023-02-11T06:26:25;4.53;;;1.75;;
35919;SDS011;36160;53.370;-6.196;2023-02-11T06:28:51;6.55;;;3.00;;
35919;SDS011;36160;53.370;-6.196;2023-02-11T06:31:16;6.57;;;2.97;;
35919;SDS011;36160;53.370;-6.196;2023-02-11T06:33:42;6.22;;;2.25;;
35919;SDS011;36160;53.370;-6.196;2023-02-11T06:36:15;2.63;;;2.00;;
35919;SDS011;36160;53.370;-6.196;2023-02-11T06:38:43;6.28;;;2.13;;
35919;SDS011;36160;53.370;-6.196;2023-02-11T06:41:09;3.28;;;2.22;;
35919;SDS011;36160;53.370;-6.196;2023-02-11T06:43:39;3.93;;;2.23;;
35919;SDS011;36160;53.370;-6.196;2023-02-11T06:46:05;3.38;;;2.13;;
35919;SDS011;36160;53.370;-6.196;2023-02-11T06:48:31;5.60;;;2.40;;
35919;SDS011;36160;53.370;-6.196;2023-02-11T06:51:02;3.55;;;1.90;;
35919;SDS011;36160;53.370;-6.196;2023-02-11T06:53:38;4.97;;;1.75;;
35919;SDS011;36160;53.370;-6.196;2023-02-11T06:56:07;4.43;;;2.10;;
35919;SDS011;36160;53.370;-6.196;2023-02-11T06:58:34;8.75;;;2.33;;
35919;SDS011;36160;53.370;-6.196;2023-02-11T07:01:04;3.90;;;2.17;;
35919;SDS011;36160;53.370;-6.196;2023-02-11T07:03:35;6.03;;;2.30;;
35919;SDS011;36160;53.370;-6.196;2023-02-11T07:06:06;3.40;;;2.20;;
35919;SDS011;36160;53.370;-6.196;2023-02-11T07:08:32;3.50;;;2.60;;
35919;SDS011;36160;53.370;-6.196;2023-02-11T07:10:59;5.72;;;2.80;;
35919;SDS011;36160;53.370;-6.196;2023-02-11T07:13:25;5.65;;;3.08;;
35919;SDS011;36160;53.370;-6.196;2023-02-11T07:15:51;10.10;;;3.67;;
35919;SDS011;36160;53.370;-6.196;2023-02-11T07:18:16;9.35;;;3.33;;
35919;SDS011;36160;53.370;-6.196;2023-02-11T07:20:42;8.73;;;3.22;;
35919;SDS011;36160;53.370;-6.196;2023-02-11T07:23:08;4.05;;;3.33;;
35919;SDS011;36160;53.370;-6.196;2023-02-11T07:25:34;4.95;;;2.72;;
35919;SDS011;36160;53.370;-6.196;2023-02-11T07:28:00;8.27;;;3.53;;
35919;SDS011;36160;53.370;-6.196;2023-02-11T07:30:26;6.13;;;3.47;;
35919;SDS011;36160;53.370;-6.196;2023-02-11T07:32:52;11.35;;;4.07;;
35919;SDS011;36160;53.370;-6.196;2023-02-11T07:35:18;5.28;;;2.70;;
35919;SDS011;36160;53.370;-6.196;2023-02-11T07:37:43;8.35;;;4.18;;
35919;SDS011;36160;53.370;-6.196;2023-02-11T07:40:09;8.65;;;3.42;;
35919;SDS011;36160;53.370;-6.196;2023-02-11T07:42:35;5.25;;;3.13;;
35919;SDS011;36160;53.370;-6.196;2023-02-11T07:45:03;7.05;;;3.25;;
35919;SDS011;36160;53.370;-6.196;2023-02-11T07:47:29;5.10;;;2.83;;
35919;SDS011;36160;53.370;-6.196;2023-02-11T07:49:54;6.20;;;3.28;;
35919;SDS011;36160;53.370;-6.196;2023-02-11T07:52:20;7.82;;;3.30;;
35919;SDS011;36160;53.370;-6.196;2023-02-11T07:54:47;4.68;;;4.03;;
35919;SDS011;36160;53.370;-6.196;2023-02-11T07:57:13;6.88;;;4.50;;
35919;SDS011;36160;53.370;-6.196;2023-02-11T07:59:38;5.72;;;4.82;;
35919;SDS011;36160;53.370;-6.196;2023-02-11T08:02:04;9.18;;;4.40;;
35919;SDS011;36160;53.370;-6.196;2023-02-11T08:04:30;7.28;;;3.35;;
35919;SDS011;36160;53.370;-6.196;2023-02-11T08:06:55;10.45;;;3.17;;
35919;SDS011;36160;53.370;-6.196;2023-02-11T08:09:22;6.93;;;2.33;;
35919;SDS011;36160;53.370;-6.196;2023-02-11T08:11:48;7.30;;;2.70;;
35919;SDS011;36160;53.370;-6.196;2023-02-11T08:14:14;12.27;;;2.53;;
35919;SDS011;36160;53.370;-6.196;2023-02-11T08:16:39;5.03;;;1.90;;
35919;SDS011;36160;53.370;-6.196;2023-02-11T08:19:14;8.65;;;3.30;;
35919;SDS011;36160;53.370;-6.196;2023-02-11T08:21:41;4.05;;;1.88;;
35919;SDS011;36160;53.370;-6.196;2023-02-11T08:24:08;4.53;;;1.77;;
35919;SDS011;36160;53.370;-6.196;2023-02-11T08:26:34;8.02;;;1.85;;
35919;SDS011;36160;53.370;-6.196;2023-02-11T08:29:01;8.85;;;2.00;;
35919;SDS011;36160;53.370;-6.196;2023-02-11T08:31:32;5.72;;;1.67;;
35919;SDS011;36160;53.370;-6.196;2023-02-11T08:33:59;5.55;;;1.70;;
35919;SDS011;36160;53.370;-6.196;2023-02-11T08:36:27;8.18;;;1.55;;
35919;SDS011;36160;53.370;-6.196;2023-02-11T08:38:55;7.78;;;1.50;;
35919;SDS011;36160;53.370;-6.196;2023-02-11T08:41:23;5.07;;;1.90;;
35919;SDS011;36160;53.370;-6.196;2023-02-11T08:43:49;5.60;;;1.40;;
35919;SDS011;36160;53.370;-6.196;2023-02-11T08:46:16;12.93;;;1.92;;
35919;SDS011;36160;53.370;-6.196;2023-02-11T08:48:43;5.90;;;1.73;;
35919;SDS011;36160;53.370;-6.196;2023-02-11T08:51:14;5.30;;;1.90;;
35919;SDS011;36160;53.370;-6.196;2023-02-11T08:53:45;3.80;;;1.40;;
35919;SDS011;36160;53.370;-6.196;2023-02-11T08:56:12;4.88;;;2.30;;
35919;SDS011;36160;53.370;-6.196;2023-02-11T08:58:38;4.10;;;1.40;;
35919;SDS011;36160;53.370;-6.196;2023-02-11T09:01:08;6.60;;;1.92;;
35919;SDS011;36160;53.370;-6.196;2023-02-11T09:03:34;4.82;;;1.50;;
35919;SDS011;36160;53.370;-6.196;2023-02-11T09:06:02;8.57;;;3.05;;
35919;SDS011;36160;53.370;-6.196;2023-02-11T09:08:42;4.00;;;1.52;;
35919;SDS011;36160;53.370;-6.196;2023-02-11T09:11:09;9.02;;;1.98;;
35919;SDS011;36160;53.370;-6.196;2023-02-11T09:13:36;5.45;;;1.90;;
35919;SDS011;36160;53.370;-6.196;2023-02-11T09:16:03;8.60;;;1.90;;
35919;SDS011;36160;53.370;-6.196;2023-02-11T09:18:29;7.43;;;2.05;;
35919;SDS011;36160;53.370;-6.196;2023-02-11T09:21:05;9.00;;;1.95;;
35919;SDS011;36160;53.370;-6.196;2023-02-11T09:23:34;8.07;;;1.83;;
35919;SDS011;36160;53.370;-6.196;2023-02-11T09:26:07;7.88;;;1.65;;
35919;SDS011;36160;53.370;-6.196;2023-02-11T09:28:34;3.97;;;1.90;;
35919;SDS011;36160;53.370;-6.196;2023-02-11T09:31:10;8.48;;;2.45;;
35919;SDS011;36160;53.370;-6.196;2023-02-11T09:33:40;8.73;;;2.28;;
35919;SDS011;36160;53.370;-6.196;2023-02-11T09:38:38;10.10;;;2.22;;
35919;SDS011;36160;53.370;-6.196;2023-02-11T09:41:04;10.05;;;2.40;;
35919;SDS011;36160;53.370;-6.196;2023-02-11T09:43:36;9.57;;;1.77;;
35919;SDS011;36160;53.370;-6.196;2023-02-11T09:46:08;13.18;;;1.90;;
35919;SDS011;36160;53.370;-6.196;2023-02-11T09:48:38;9.30;;;1.70;;
35919;SDS011;36160;53.370;-6.196;2023-02-11T09:51:09;5.13;;;1.88;;
35919;SDS011;36160;53.370;-6.196;2023-02-11T09:53:47;5.45;;;1.60;;
35919;SDS011;36160;53.370;-6.196;2023-02-11T09:56:17;5.55;;;1.70;;
35919;SDS011;36160;53.370;-6.196;2023-02-11T09:58:43;5.60;;;1.38;;
35919;SDS011;36160;53.370;-6.196;2023-02-11T10:01:29;5.15;;;1.58;;
35919;SDS011;36160;53.370;-6.196;2023-02-11T10:04:19;6.43;;;1.50;;
35919;SDS011;36160;53.370;-6.196;2023-02-11T10:10:34;4.35;;;1.25;;
35919;SDS011;36160;53.370;-6.196;2023-02-11T10:13:15;5.57;;;2.03;;
35919;SDS011;36160;53.370;-6.196;2023-02-11T10:23:47;6.63;;;2.40;;
35919;SDS011;36160;53.370;-6.196;2023-02-11T10:26:18;9.00;;;2.47;;
35919;SDS011;36160;53.370;-6.196;2023-02-11T10:28:45;7.35;;;2.35;;
35919;SDS011;36160;53.370;-6.196;2023-02-11T10:31:14;6.30;;;1.77;;
35919;SDS011;36160;53.370;-6.196;2023-02-11T10:33:59;9.82;;;2.72;;
35919;SDS011;36160;53.370;-6.196;2023-02-11T10:36:29;7.53;;;2.03;;
35919;SDS011;36160;53.370;-6.196;2023-02-11T10:38:58;9.55;;;2.00;;
35919;SDS011;36160;53.370;-6.196;2023-02-11T10:41:27;8.88;;;2.40;;
35919;SDS011;36160;53.370;-6.196;2023-02-11T10:43:58;7.40;;;2.42;;
35919;SDS011;36160;53.370;-6.196;2023-02-11T10:46:26;9.43;;;2.50;;
35919;SDS011;36160;53.370;-6.196;2023-02-11T10:48:56;10.43;;;2.67;;
35919;SDS011;36160;53.370;-6.196;2023-02-11T10:51:22;9.98;;;1.67;;
35919;SDS011;36160;53.370;-6.196;2023-02-11T10:53:50;7.30;;;2.33;;
35919;SDS011;36160;53.370;-6.196;2023-02-11T10:56:45;6.95;;;2.20;;
35919;SDS011;36160;53.370;-6.196;2023-02-11T10:59:20;7.22;;;2.60;;
35919;SDS011;36160;53.370;-6.196;2023-02-11T11:01:58;9.45;;;2.58;;
35919;SDS011;36160;53.370;-6.196;2023-02-11T11:06:56;7.95;;;2.08;;
35919;SDS011;36160;53.370;-6.196;2023-02-11T11:12:47;7.53;;;2.35;;
35919;SDS011;36160;53.370;-6.196;2023-02-11T11:15:20;8.63;;;2.00;;
35919;SDS011;36160;53.370;-6.196;2023-02-11T11:17:48;14.80;;;3.03;;
35919;SDS011;36160;53.370;-6.196;2023-02-11T11:20:32;14.23;;;2.72;;
35919;SDS011;36160;53.370;-6.196;2023-02-11T11:23:07;11.90;;;2.90;;
35919;SDS011;36160;53.370;-6.196;2023-02-11T11:25:44;13.95;;;3.33;;
35919;SDS011;36160;53.370;-6.196;2023-02-11T11:28:24;14.75;;;2.65;;
35919;SDS011;36160;53.370;-6.196;2023-02-11T11:30:52;7.13;;;1.77;;
35919;SDS011;36160;53.370;-6.196;2023-02-11T11:33:23;7.55;;;2.58;;
35919;SDS011;36160;53.370;-6.196;2023-02-11T11:35:54;9.88;;;2.83;;
35919;SDS011;36160;53.370;-6.196;2023-02-11T11:38:26;10.05;;;2.20;;
35919;SDS011;36160;53.370;-6.196;2023-02-11T11:44:00;26.98;;;3.33;;
35919;SDS011;36160;53.370;-6.196;2023-02-11T11:52:45;11.70;;;2.30;;
35919;SDS011;36160;53.370;-6.196;2023-02-11T11:57:53;7.40;;;2.25;;
35919;SDS011;36160;53.370;-6.196;2023-02-11T12:00:27;13.05;;;2.25;;
35919;SDS011;36160;53.370;-6.196;2023-02-11T12:11:01;7.22;;;1.92;;
35919;SDS011;36160;53.370;-6.196;2023-02-11T12:22:27;8.75;;;1.90;;
35919;SDS011;36160;53.370;-6.196;2023-02-11T12:32:55;7.75;;;2.50;;
35919;SDS011;36160;53.370;-6.196;2023-02-11T12:57:55;7.20;;;1.75;;
35919;SDS011;36160;53.370;-6.196;2023-02-11T13:00:32;9.70;;;1.77;;
35919;SDS011;36160;53.370;-6.196;2023-02-11T13:15:58;12.55;;;2.20;;
35919;SDS011;36160;53.370;-6.196;2023-02-11T13:31:18;13.93;;;3.33;;
35919;SDS011;36160;53.370;-6.196;2023-02-11T13:33:44;6.90;;;2.25;;
35919;SDS011;36160;53.370;-6.196;2023-02-11T13:36:17;7.93;;;1.50;;
35919;SDS011;36160;53.370;-6.196;2023-02-11T13:38:52;10.18;;;1.90;;
35919;SDS011;36160;53.370;-6.196;2023-02-11T13:49:28;8.15;;;1.50;;
35919;SDS011;36160;53.370;-6.196;2023-02-11T13:52:05;9.32;;;2.15;;
35919;SDS011;36160;53.370;-6.196;2023-02-11T13:54:45;9.07;;;2.25;;
35919;SDS011;36160;53.370;-6.196;2023-02-11T13:59:54;7.43;;;2.55;;
35919;SDS011;36160;53.370;-6.196;2023-02-11T14:02:31;6.68;;;2.35;;
35919;SDS011;36160;53.370;-6.196;2023-02-11T14:15:47;8.35;;;2.80;;
35919;SDS011;36160;53.370;-6.196;2023-02-11T14:23:45;8.32;;;2.42;;
35919;SDS011;36160;53.370;-6.196;2023-02-11T14:28:46;4.45;;;1.73;;
35919;SDS011;36160;53.370;-6.196;2023-02-11T14:34:04;12.35;;;2.47;;
35919;SDS011;36160;53.370;-6.196;2023-02-11T14:36:54;6.65;;;1.95;;
35919;SDS011;36160;53.370;-6.196;2023-02-11T14:42:15;7.45;;;2.35;;
35919;SDS011;36160;53.370;-6.196;2023-02-11T14:44:44;11.85;;;1.80;;
35919;SDS011;36160;53.370;-6.196;2023-02-11T14:47:22;9.85;;;3.08;;
35919;SDS011;36160;53.370;-6.196;2023-02-11T14:49:52;11.63;;;3.47;;
35919;SDS011;36160;53.370;-6.196;2023-02-11T14:52:26;7.90;;;1.70;;
35919;SDS011;36160;53.370;-6.196;2023-02-11T14:55:04;7.90;;;2.03;;
35919;SDS011;36160;53.370;-6.196;2023-02-11T14:57:33;9.15;;;2.28;;
35919;SDS011;36160;53.370;-6.196;2023-02-11T15:00:04;8.65;;;3.33;;
35919;SDS011;36160;53.370;-6.196;2023-02-11T15:02:38;6.72;;;2.13;;
35919;SDS011;36160;53.370;-6.196;2023-02-11T15:05:14;12.18;;;2.20;;
35919;SDS011;36160;53.370;-6.196;2023-02-11T15:07:46;7.75;;;2.05;;
35919;SDS011;36160;53.370;-6.196;2023-02-11T15:10:16;13.52;;;2.25;;
35919;SDS011;36160;53.370;-6.196;2023-02-11T15:12:45;8.13;;;3.37;;
35919;SDS011;36160;53.370;-6.196;2023-02-11T15:15:14;19.17;;;3.58;;
35919;SDS011;36160;53.370;-6.196;2023-02-11T15:17:40;6.53;;;2.30;;
35919;SDS011;36160;53.370;-6.196;2023-02-11T15:20:12;9.13;;;2.78;;
35919;SDS011;36160;53.370;-6.196;2023-02-11T15:22:45;7.30;;;2.72;;
35919;SDS011;36160;53.370;-6.196;2023-02-11T15:25:15;5.95;;;2.00;;
35919;SDS011;36160;53.370;-6.196;2023-02-11T15:27:45;5.30;;;1.90;;
35919;SDS011;36160;53.370;-6.196;2023-02-11T15:32:47;3.90;;;1.50;;
35919;SDS011;36160;53.370;-6.196;2023-02-11T15:35:22;7.75;;;3.22;;
35919;SDS011;36160;53.370;-6.196;2023-02-11T15:37:48;6.32;;;2.08;;
35919;SDS011;36160;53.370;-6.196;2023-02-11T15:40:15;7.38;;;2.55;;
35919;SDS011;36160;53.370;-6.196;2023-02-11T15:45:32;3.58;;;1.80;;
35919;SDS011;36160;53.370;-6.196;2023-02-11T15:48:08;6.38;;;2.17;;
35919;SDS011;36160;53.370;-6.196;2023-02-11T15:50:37;6.60;;;2.15;;
35919;SDS011;36160;53.370;-6.196;2023-02-11T15:56:18;8.00;;;3.35;;
35919;SDS011;36160;53.370;-6.196;2023-02-11T15:58:50;6.68;;;2.83;;
35919;SDS011;36160;53.370;-6.196;2023-02-11T16:01:27;10.90;;;3.90;;
35919;SDS011;36160;53.370;-6.196;2023-02-11T16:03:57;9.07;;;4.45;;
35919;SDS011;36160;53.370;-6.196;2023-02-11T16:06:25;16.30;;;7.68;;
35919;SDS011;36160;53.370;-6.196;2023-02-11T16:09:03;14.75;;;4.63;;
35919;SDS011;36160;53.370;-6.196;2023-02-11T16:11:33;3.65;;;2.65;;
35919;SDS011;36160;53.370;-6.196;2023-02-11T16:14:18;11.45;;;3.10;;
35919;SDS011;36160;53.370;-6.196;2023-02-11T16:17:03;10.00;;;2.40;;
35919;SDS011;36160;53.370;-6.196;2023-02-11T16:19:30;10.77;;;3.45;;
35919;SDS011;36160;53.370;-6.196;2023-02-11T16:21:57;7.35;;;2.45;;
35919;SDS011;36160;53.370;-6.196;2023-02-11T16:24:26;9.65;;;2.50;;
35919;SDS011;36160;53.370;-6.196;2023-02-11T16:26:55;5.43;;;2.17;;
35919;SDS011;36160;53.370;-6.196;2023-02-11T16:29:24;14.48;;;2.63;;
35919;SDS011;36160;53.370;-6.196;2023-02-11T16:31:53;8.82;;;3.50;;
35919;SDS011;36160;53.370;-6.196;2023-02-11T16:34:29;7.57;;;2.40;;
35919;SDS011;36160;53.370;-6.196;2023-02-11T16:36:55;13.50;;;7.10;;
35919;SDS011;36160;53.370;-6.196;2023-02-11T16:39:20;7.22;;;3.10;;
35919;SDS011;36160;53.370;-6.196;2023-02-11T16:41:46;14.70;;;4.40;;
35919;SDS011;36160;53.370;-6.196;2023-02-11T16:44:15;9.40;;;3.75;;
35919;SDS011;36160;53.370;-6.196;2023-02-11T16:46:41;12.55;;;4.00;;
35919;SDS011;36160;53.370;-6.196;2023-02-11T16:49:13;4.95;;;2.78;;
35919;SDS011;36160;53.370;-6.196;2023-02-11T16:51:44;11.25;;;4.35;;
35919;SDS011;36160;53.370;-6.196;2023-02-11T16:54:14;12.82;;;4.97;;
35919;SDS011;36160;53.370;-6.196;2023-02-11T16:56:41;10.15;;;3.80;;
35919;SDS011;36160;53.370;-6.196;2023-02-11T16:59:07;9.98;;;4.13;;
35919;SDS011;36160;53.370;-6.196;2023-02-11T17:01:34;5.93;;;2.60;;
35919;SDS011;36160;53.370;-6.196;2023-02-11T17:04:02;12.27;;;2.47;;
35919;SDS011;36160;53.370;-6.196;2023-02-11T17:06:28;10.13;;;2.55;;
35919;SDS011;36160;53.370;-6.196;2023-02-11T17:08:54;10.82;;;2.40;;
35919;SDS011;36160;53.370;-6.196;2023-02-11T17:11:20;6.35;;;2.40;;
35919;SDS011;36160;53.370;-6.196;2023-02-11T17:13:45;7.50;;;2.70;;
35919;SDS011;36160;53.370;-6.196;2023-02-11T17:16:16;7.55;;;1.73;;
35919;SDS011;36160;53.370;-6.196;2023-02-11T17:18:47;7.72;;;2.13;;
35919;SDS011;36160;53.370;-6.196;2023-02-11T17:21:13;8.00;;;2.53;;
35919;SDS011;36160;53.370;-6.196;2023-02-11T17:23:39;4.65;;;2.88;;
35919;SDS011;36160;53.370;-6.196;2023-02-11T17:26:05;3.45;;;2.38;;
35919;SDS011;36160;53.370;-6.196;2023-02-11T17:28:32;4.60;;;2.60;;
35919;SDS011;36160;53.370;-6.196;2023-02-11T17:30:58;3.58;;;2.30;;
35919;SDS011;36160;53.370;-6.196;2023-02-11T17:33:24;9.55;;;3.15;;
35919;SDS011;36160;53.370;-6.196;2023-02-11T17:35:50;8.00;;;2.28;;
35919;SDS011;36160;53.370;-6.196;2023-02-11T17:38:16;5.72;;;1.80;;
35919;SDS011;36160;53.370;-6.196;2023-02-11T17:40:42;8.98;;;1.80;;
35919;SDS011;36160;53.370;-6.196;2023-02-11T17:43:08;2.38;;;1.42;;